Terminal Aerodrome Forecast
Issued by NWS Cleveland, OH

Home | Current Version | Previous Version | Graphics & Text | Print | Product List | Glossary On
Versions: 1 2 3 4 5 6 7 8 9 10 11 12 13 14 15 16 17 18
000
FTUS41 KCLE 301045 AAA
TAFERI
TAF AMD
KERI 301045Z 3011/0106 17012G20KT P6SM OVC100
     FM301500 15010KT P6SM VCSH OVC020
     FM302000 19010KT P6SM VCSH BKN025
     FM010000 22012G20KT 6SM -SHRA BKN025
      TEMPO 0100/0102 5SM -RA OVC020
     FM010200 24012G22KT P6SM BKN015=

USA.gov is the U.S. government's official web portal to all federal, state and local government web resources and services.